Impacts METAR Board
IDs:

KFLL - Ft Lauderdale-Hollyw, FL, US

Updated at: 1100 UTC 30 Oct 2020
Potential Impact None Slight Moderate High
Time 29/23Z 30/00Z 30/01Z 30/02Z 30/03Z 30/04Z 30/05Z 30/06Z 30/07Z 30/08Z 30/09Z 30/10Z 30/11Z
Temp82 82 82 82 81 81 80 80 79 79 79 79 79
Dewpt79 78 78 79 79 78 79 79 79 79 79 79 79
Altim29.89 29.91 29.94 29.93 29.95 29.95 29.94 29.94 29.92 29.91 29.91 29.91 29.92
VIS10 10 10 10 10 10 10 10 10 10 10 10 10
CIG-- -- -- -- 250 250 250 250 250 250 -- -- --
CoverSCTFEWFEWSCTBKNBKNBKNBKNBKNBKNSCTSCTSCT
FltCatVFRVFRVFRVFRVFRVFRVFRVFRVFRVFRVFRVFRVFR
WX-------------------RA------
WDir160170220250210190002500000
WSpd8 4 5 3 3 3 0 0 3 0 0 3 0
WGst-- -- -- -- -- -- -- -- -- -- -- -- --
Raw hourly METARs
KFLL 292253Z 16008KT 10SM FEW025 SCT120 28/26 A2989 RMK AO2 RAE04 SLP121 TCU DSNT NW MDT CU DSNT SW-NW P0000 T02780261
KFLL 292353Z 17004KT 10SM FEW025 FEW120 28/26 A2991 RMK AO2 SLP128 MDT CU DSNT SW-NW 60002 T02780256 10317 20261 53010
KFLL 300053Z 22005KT 10SM FEW025 FEW120 28/26 A2994 RMK AO2 SLP137 T02780256
KFLL 300153Z 25003KT 10SM FEW024 SCT100 28/26 A2993 RMK AO2 SLP136 T02780261
KFLL 300253Z 21003KT 10SM FEW080 SCT120 BKN250 27/26 A2995 RMK AO2 SLP140 T02720261 51012
KFLL 300353Z 19003KT 10SM FEW022 SCT110 BKN250 27/26 A2995 RMK AO2 SLP141 T02720256
KFLL 300453Z 00000KT 10SM SCT120 BKN250 27/26 A2994 RMK AO2 SLP139 T02670261 403170261
KFLL 300553Z 00000KT 10SM FEW023 SCT110 BKN250 27/26 A2994 RMK AO2 SLP137 T02670261 10278 20267 58003
KFLL 300653Z 25003KT 10SM FEW018 BKN250 26/26 A2992 RMK AO2 SLP132 T02610261
KFLL 300753Z 00000KT 10SM -RA SCT025 BKN250 26/26 A2991 RMK AO2 RAB47 SLP129 P0000 T02610261
KFLL 300853Z 00000KT 10SM FEW015 FEW025 SCT250 26/26 A2991 RMK AO2 RAE0757 SLP127 P0000 60000 T02610261 56010
KFLL 300953Z VRB03KT 10SM FEW018 SCT250 26/26 A2991 RMK AO2 SLP128 T02610261
KFLL 301053Z 00000KT 10SM FEW020 SCT250 26/26 A2992 RMK AO2 SLP132 T02610261



Page loaded:  11:10 UTC  |   04:10 AM Pacific  |   05:10 AM Mountain  |   06:10 AM Central  |   07:10 AM Eastern

 

ADVISORIES

FORECASTS

FORECASTS

OBSERVATIONS

USER TOOLS

ABOUT US